sensor_id;sensor_type;location;lat;lon;timestamp;temperature;humidity
20246;DHT22;10281;54.406;18.556;2023-09-12T00:00:26;15.70;99.90
20246;DHT22;10281;54.406;18.556;2023-09-12T00:02:52;15.80;99.90
20246;DHT22;10281;54.406;18.556;2023-09-12T00:05:19;15.70;99.90
20246;DHT22;10281;54.406;18.556;2023-09-12T00:07:45;15.70;99.90
20246;DHT22;10281;54.406;18.556;2023-09-12T00:10:12;15.70;99.90
20246;DHT22;10281;54.406;18.556;2023-09-12T00:12:39;15.70;99.90
20246;DHT22;10281;54.406;18.556;2023-09-12T00:15:06;15.70;99.90
20246;DHT22;10281;54.406;18.556;2023-09-12T00:17:33;15.60;99.90
20246;DHT22;10281;54.406;18.556;2023-09-12T00:19:59;15.60;99.90
20246;DHT22;10281;54.406;18.556;2023-09-12T00:22:26;15.60;99.90
20246;DHT22;10281;54.406;18.556;2023-09-12T00:24:53;15.60;99.90
20246;DHT22;10281;54.406;18.556;2023-09-12T00:27:19;15.60;99.90
20246;DHT22;10281;54.406;18.556;2023-09-12T00:29:46;15.60;99.90
20246;DHT22;10281;54.406;18.556;2023-09-12T00:32:12;15.60;99.90
20246;DHT22;10281;54.406;18.556;2023-09-12T00:34:39;15.50;99.90
20246;DHT22;10281;54.406;18.556;2023-09-12T00:37:06;15.50;99.90
20246;DHT22;10281;54.406;18.556;2023-09-12T00:39:32;15.50;99.90
20246;DHT22;10281;54.406;18.556;2023-09-12T00:41:59;15.50;99.90
20246;DHT22;10281;54.406;18.556;2023-09-12T00:44:25;15.50;99.90
20246;DHT22;10281;54.406;18.556;2023-09-12T00:46:53;15.50;99.90
20246;DHT22;10281;54.406;18.556;2023-09-12T00:49:21;15.50;99.90
20246;DHT22;10281;54.406;18.556;2023-09-12T00:51:49;15.40;99.90
20246;DHT22;10281;54.406;18.556;2023-09-12T00:54:16;15.40;99.90
20246;DHT22;10281;54.406;18.556;2023-09-12T00:56:44;15.40;99.90
20246;DHT22;10281;54.406;18.556;2023-09-12T00:59:11;15.40;99.90
20246;DHT22;10281;54.406;18.556;2023-09-12T01:01:38;15.40;99.90
20246;DHT22;10281;54.406;18.556;2023-09-12T01:04:05;15.40;99.90
20246;DHT22;10281;54.406;18.556;2023-09-12T01:06:34;15.40;99.90
20246;DHT22;10281;54.406;18.556;2023-09-12T01:09:01;15.40;99.90
20246;DHT22;10281;54.406;18.556;2023-09-12T01:11:28;15.40;99.90
20246;DHT22;10281;54.406;18.556;2023-09-12T01:13:55;15.40;99.90
20246;DHT22;10281;54.406;18.556;2023-09-12T01:16:21;15.40;99.90
20246;DHT22;10281;54.406;18.556;2023-09-12T01:18:49;15.40;99.90
20246;DHT22;10281;54.406;18.556;2023-09-12T01:24:06;15.30;99.90
20246;DHT22;10281;54.406;18.556;2023-09-12T01:29:31;15.30;99.90
20246;DHT22;10281;54.406;18.556;2023-09-12T01:31:58;15.30;99.90
20246;DHT22;10281;54.406;18.556;2023-09-12T01:34:26;15.30;99.90
20246;DHT22;10281;54.406;18.556;2023-09-12T01:36:53;15.30;99.90
20246;DHT22;10281;54.406;18.556;2023-09-12T01:39:20;15.30;99.90
20246;DHT22;10281;54.406;18.556;2023-09-12T01:41:48;15.30;99.90
20246;DHT22;10281;54.406;18.556;2023-09-12T01:44:17;15.30;99.90
20246;DHT22;10281;54.406;18.556;2023-09-12T01:46:44;15.30;99.90
20246;DHT22;10281;54.406;18.556;2023-09-12T01:49:12;15.30;99.90
20246;DHT22;10281;54.406;18.556;2023-09-12T01:51:41;15.30;99.90
20246;DHT22;10281;54.406;18.556;2023-09-12T01:54:09;15.30;99.90
20246;DHT22;10281;54.406;18.556;2023-09-12T01:56:36;15.30;99.90
20246;DHT22;10281;54.406;18.556;2023-09-12T01:59:03;15.30;99.90
20246;DHT22;10281;54.406;18.556;2023-09-12T02:01:30;15.30;99.90
20246;DHT22;10281;54.406;18.556;2023-09-12T02:03:57;15.40;99.90
20246;DHT22;10281;54.406;18.556;2023-09-12T02:06:24;15.40;99.90
20246;DHT22;10281;54.406;18.556;2023-09-12T02:08:50;15.40;99.90
20246;DHT22;10281;54.406;18.556;2023-09-12T02:11:17;15.40;99.90
20246;DHT22;10281;54.406;18.556;2023-09-12T02:13:43;15.40;99.90
20246;DHT22;10281;54.406;18.556;2023-09-12T02:16:10;15.40;99.90
20246;DHT22;10281;54.406;18.556;2023-09-12T02:18:36;15.40;99.90
20246;DHT22;10281;54.406;18.556;2023-09-12T02:21:03;15.40;99.90
20246;DHT22;10281;54.406;18.556;2023-09-12T02:23:30;15.40;99.90
20246;DHT22;10281;54.406;18.556;2023-09-12T02:25:56;15.40;99.90
20246;DHT22;10281;54.406;18.556;2023-09-12T02:28:23;15.50;99.90
20246;DHT22;10281;54.406;18.556;2023-09-12T02:30:50;15.50;99.90
20246;DHT22;10281;54.406;18.556;2023-09-12T02:33:17;15.50;99.90
20246;DHT22;10281;54.406;18.556;2023-09-12T02:35:44;15.50;99.90
20246;DHT22;10281;54.406;18.556;2023-09-12T02:38:10;15.50;99.90
20246;DHT22;10281;54.406;18.556;2023-09-12T02:40:37;15.50;99.90
20246;DHT22;10281;54.406;18.556;2023-09-12T02:43:03;15.60;99.90
20246;DHT22;10281;54.406;18.556;2023-09-12T02:45:31;15.60;99.90
20246;DHT22;10281;54.406;18.556;2023-09-12T02:47:57;15.60;99.90
20246;DHT22;10281;54.406;18.556;2023-09-12T02:50:24;15.60;99.90
20246;DHT22;10281;54.406;18.556;2023-09-12T02:52:50;15.60;99.90
20246;DHT22;10281;54.406;18.556;2023-09-12T02:55:17;15.70;99.90
20246;DHT22;10281;54.406;18.556;2023-09-12T02:57:44;15.70;99.90
20246;DHT22;10281;54.406;18.556;2023-09-12T03:00:11;15.70;99.90
20246;DHT22;10281;54.406;18.556;2023-09-12T03:02:38;15.70;99.90
20246;DHT22;10281;54.406;18.556;2023-09-12T03:05:04;15.70;99.90
20246;DHT22;10281;54.406;18.556;2023-09-12T03:07:31;15.70;99.90
20246;DHT22;10281;54.406;18.556;2023-09-12T03:09:58;15.70;99.90
20246;DHT22;10281;54.406;18.556;2023-09-12T03:12:25;15.70;99.90
20246;DHT22;10281;54.406;18.556;2023-09-12T03:14:51;15.70;99.90
20246;DHT22;10281;54.406;18.556;2023-09-12T03:17:18;15.70;99.90
20246;DHT22;10281;54.406;18.556;2023-09-12T03:19:44;15.70;99.90
20246;DHT22;10281;54.406;18.556;2023-09-12T03:22:12;15.70;99.90
20246;DHT22;10281;54.406;18.556;2023-09-12T03:24:38;15.70;99.90
20246;DHT22;10281;54.406;18.556;2023-09-12T03:27:05;15.70;99.90
20246;DHT22;10281;54.406;18.556;2023-09-12T03:29:32;15.70;99.90
20246;DHT22;10281;54.406;18.556;2023-09-12T03:31:58;15.70;99.90
20246;DHT22;10281;54.406;18.556;2023-09-12T03:34:25;15.70;99.90
20246;DHT22;10281;54.406;18.556;2023-09-12T03:36:52;15.70;99.90
20246;DHT22;10281;54.406;18.556;2023-09-12T03:39:18;15.70;99.90
20246;DHT22;10281;54.406;18.556;2023-09-12T03:41:45;15.70;99.90
20246;DHT22;10281;54.406;18.556;2023-09-12T03:44:11;15.70;99.90
20246;DHT22;10281;54.406;18.556;2023-09-12T03:46:38;15.60;99.90
20246;DHT22;10281;54.406;18.556;2023-09-12T03:49:05;15.60;99.90
20246;DHT22;10281;54.406;18.556;2023-09-12T03:51:33;15.60;99.90
20246;DHT22;10281;54.406;18.556;2023-09-12T03:54:00;15.60;99.90
20246;DHT22;10281;54.406;18.556;2023-09-12T03:56:27;15.70;99.90
20246;DHT22;10281;54.406;18.556;2023-09-12T03:58:54;15.70;99.90
20246;DHT22;10281;54.406;18.556;2023-09-12T04:01:23;15.60;99.90
20246;DHT22;10281;54.406;18.556;2023-09-12T04:03:49;15.60;99.90
20246;DHT22;10281;54.406;18.556;2023-09-12T04:06:16;15.70;99.90
20246;DHT22;10281;54.406;18.556;2023-09-12T04:08:42;15.70;99.90
20246;DHT22;10281;54.406;18.556;2023-09-12T04:11:09;15.60;99.90
20246;DHT22;10281;54.406;18.556;2023-09-12T04:13:37;15.60;99.90
20246;DHT22;10281;54.406;18.556;2023-09-12T04:16:03;15.60;99.90
20246;DHT22;10281;54.406;18.556;2023-09-12T04:18:30;15.60;99.90
20246;DHT22;10281;54.406;18.556;2023-09-12T04:20:57;15.60;99.90
20246;DHT22;10281;54.406;18.556;2023-09-12T04:23:25;15.60;99.90
20246;DHT22;10281;54.406;18.556;2023-09-12T04:25:52;15.60;99.90
20246;DHT22;10281;54.406;18.556;2023-09-12T04:28:18;15.60;99.90
20246;DHT22;10281;54.406;18.556;2023-09-12T04:30:45;15.60;99.90
20246;DHT22;10281;54.406;18.556;2023-09-12T04:33:12;15.60;99.90
20246;DHT22;10281;54.406;18.556;2023-09-12T04:35:38;15.60;99.90
20246;DHT22;10281;54.406;18.556;2023-09-12T04:38:05;15.60;99.90
20246;DHT22;10281;54.406;18.556;2023-09-12T04:40:31;15.60;99.90
20246;DHT22;10281;54.406;18.556;2023-09-12T04:42:58;15.60;99.90
20246;DHT22;10281;54.406;18.556;2023-09-12T04:45:25;15.70;99.90
20246;DHT22;10281;54.406;18.556;2023-09-12T04:47:51;15.70;99.90
20246;DHT22;10281;54.406;18.556;2023-09-12T04:50:18;15.70;99.90
20246;DHT22;10281;54.406;18.556;2023-09-12T04:52:44;15.70;99.90
20246;DHT22;10281;54.406;18.556;2023-09-12T04:55:11;15.70;99.90
20246;DHT22;10281;54.406;18.556;2023-09-12T04:57:38;15.70;99.90
20246;DHT22;10281;54.406;18.556;2023-09-12T05:00:05;15.70;99.90
20246;DHT22;10281;54.406;18.556;2023-09-12T05:02:32;15.80;99.90
20246;DHT22;10281;54.406;18.556;2023-09-12T05:04:58;15.80;99.90
20246;DHT22;10281;54.406;18.556;2023-09-12T05:07:25;15.80;99.90
20246;DHT22;10281;54.406;18.556;2023-09-12T05:09:52;15.90;99.90
20246;DHT22;10281;54.406;18.556;2023-09-12T05:12:19;15.90;99.90
20246;DHT22;10281;54.406;18.556;2023-09-12T05:14:45;16.00;99.90
20246;DHT22;10281;54.406;18.556;2023-09-12T05:17:12;16.00;99.90
20246;DHT22;10281;54.406;18.556;2023-09-12T05:19:38;16.10;99.90
20246;DHT22;10281;54.406;18.556;2023-09-12T05:22:05;16.10;99.90
20246;DHT22;10281;54.406;18.556;2023-09-12T05:24:31;16.10;99.90
20246;DHT22;10281;54.406;18.556;2023-09-12T05:26:58;16.20;99.90
20246;DHT22;10281;54.406;18.556;2023-09-12T05:29:25;16.30;99.90
20246;DHT22;10281;54.406;18.556;2023-09-12T05:31:51;16.40;99.90
20246;DHT22;10281;54.406;18.556;2023-09-12T05:34:18;16.50;99.90
20246;DHT22;10281;54.406;18.556;2023-09-12T05:36:45;16.50;99.90
20246;DHT22;10281;54.406;18.556;2023-09-12T05:39:11;16.70;99.90
20246;DHT22;10281;54.406;18.556;2023-09-12T05:41:40;16.70;99.90
20246;DHT22;10281;54.406;18.556;2023-09-12T05:44:06;16.80;99.90
20246;DHT22;10281;54.406;18.556;2023-09-12T05:46:33;16.80;99.90
20246;DHT22;10281;54.406;18.556;2023-09-12T05:49:00;16.90;99.90
20246;DHT22;10281;54.406;18.556;2023-09-12T05:51:26;17.00;99.90
20246;DHT22;10281;54.406;18.556;2023-09-12T05:53:53;17.00;99.90
20246;DHT22;10281;54.406;18.556;2023-09-12T05:56:20;17.10;99.90
20246;DHT22;10281;54.406;18.556;2023-09-12T05:58:46;17.20;99.90
20246;DHT22;10281;54.406;18.556;2023-09-12T06:01:15;17.20;99.90
20246;DHT22;10281;54.406;18.556;2023-09-12T06:03:42;17.30;99.90
20246;DHT22;10281;54.406;18.556;2023-09-12T06:06:08;17.40;99.90
20246;DHT22;10281;54.406;18.556;2023-09-12T06:08:35;17.40;99.90
20246;DHT22;10281;54.406;18.556;2023-09-12T06:11:03;17.50;99.90
20246;DHT22;10281;54.406;18.556;2023-09-12T06:13:30;17.60;99.90
20246;DHT22;10281;54.406;18.556;2023-09-12T06:15:59;17.70;99.90
20246;DHT22;10281;54.406;18.556;2023-09-12T06:18:26;17.70;99.90
20246;DHT22;10281;54.406;18.556;2023-09-12T06:20:54;17.80;99.90
20246;DHT22;10281;54.406;18.556;2023-09-12T06:23:21;17.90;99.90
20246;DHT22;10281;54.406;18.556;2023-09-12T06:25:47;17.90;99.90
20246;DHT22;10281;54.406;18.556;2023-09-12T06:28:32;18.00;99.90
20246;DHT22;10281;54.406;18.556;2023-09-12T06:30:59;18.10;99.90
20246;DHT22;10281;54.406;18.556;2023-09-12T06:33:26;18.20;99.90
20246;DHT22;10281;54.406;18.556;2023-09-12T06:35:53;18.20;99.90
20246;DHT22;10281;54.406;18.556;2023-09-12T06:38:21;18.30;99.90
20246;DHT22;10281;54.406;18.556;2023-09-12T06:40:48;18.30;99.90
20246;DHT22;10281;54.406;18.556;2023-09-12T06:43:14;18.40;99.90
20246;DHT22;10281;54.406;18.556;2023-09-12T06:45:41;18.50;99.90
20246;DHT22;10281;54.406;18.556;2023-09-12T06:48:08;18.60;99.90
20246;DHT22;10281;54.406;18.556;2023-09-12T06:50:35;18.60;99.90
20246;DHT22;10281;54.406;18.556;2023-09-12T06:53:04;18.70;99.90
20246;DHT22;10281;54.406;18.556;2023-09-12T06:55:33;18.70;99.90
20246;DHT22;10281;54.406;18.556;2023-09-12T06:57:59;18.80;99.90
20246;DHT22;10281;54.406;18.556;2023-09-12T07:00:26;18.90;99.90
20246;DHT22;10281;54.406;18.556;2023-09-12T07:02:53;18.90;99.90
20246;DHT22;10281;54.406;18.556;2023-09-12T07:05:20;19.00;99.90
20246;DHT22;10281;54.406;18.556;2023-09-12T07:07:46;19.00;99.90
20246;DHT22;10281;54.406;18.556;2023-09-12T07:10:13;19.10;99.90
20246;DHT22;10281;54.406;18.556;2023-09-12T07:12:39;19.10;99.90
20246;DHT22;10281;54.406;18.556;2023-09-12T07:15:07;19.20;99.90
20246;DHT22;10281;54.406;18.556;2023-09-12T07:17:33;19.20;99.90
20246;DHT22;10281;54.406;18.556;2023-09-12T07:20:00;19.30;99.90
20246;DHT22;10281;54.406;18.556;2023-09-12T07:22:27;19.30;99.90
20246;DHT22;10281;54.406;18.556;2023-09-12T07:24:54;19.40;99.90
20246;DHT22;10281;54.406;18.556;2023-09-12T07:27:21;19.40;99.90
20246;DHT22;10281;54.406;18.556;2023-09-12T07:29:47;19.40;99.90
20246;DHT22;10281;54.406;18.556;2023-09-12T07:32:14;19.50;99.90
20246;DHT22;10281;54.406;18.556;2023-09-12T07:34:40;19.50;99.90
20246;DHT22;10281;54.406;18.556;2023-09-12T07:37:09;19.60;99.90
20246;DHT22;10281;54.406;18.556;2023-09-12T07:39:36;19.60;99.90
20246;DHT22;10281;54.406;18.556;2023-09-12T07:42:03;19.60;99.90
20246;DHT22;10281;54.406;18.556;2023-09-12T07:44:29;19.70;99.90
20246;DHT22;10281;54.406;18.556;2023-09-12T07:46:56;19.80;99.90
20246;DHT22;10281;54.406;18.556;2023-09-12T07:49:23;19.80;99.90
20246;DHT22;10281;54.406;18.556;2023-09-12T07:51:51;19.80;99.90
20246;DHT22;10281;54.406;18.556;2023-09-12T07:54:20;19.90;99.90
20246;DHT22;10281;54.406;18.556;2023-09-12T07:56:46;20.00;99.90
20246;DHT22;10281;54.406;18.556;2023-09-12T07:59:13;20.10;99.90
20246;DHT22;10281;54.406;18.556;2023-09-12T08:01:41;20.10;99.90
20246;DHT22;10281;54.406;18.556;2023-09-12T08:04:07;20.10;99.90
20246;DHT22;10281;54.406;18.556;2023-09-12T08:06:34;20.20;99.90
20246;DHT22;10281;54.406;18.556;2023-09-12T08:09:00;20.20;99.90
20246;DHT22;10281;54.406;18.556;2023-09-12T08:11:27;20.20;99.90
20246;DHT22;10281;54.406;18.556;2023-09-12T08:13:54;20.30;99.90
20246;DHT22;10281;54.406;18.556;2023-09-12T08:16:21;20.30;99.90
20246;DHT22;10281;54.406;18.556;2023-09-12T08:18:47;20.40;99.90
20246;DHT22;10281;54.406;18.556;2023-09-12T08:21:14;20.40;99.90
20246;DHT22;10281;54.406;18.556;2023-09-12T08:23:40;20.50;99.90
20246;DHT22;10281;54.406;18.556;2023-09-12T08:26:07;20.60;99.90
20246;DHT22;10281;54.406;18.556;2023-09-12T08:28:35;20.70;99.90
20246;DHT22;10281;54.406;18.556;2023-09-12T08:31:01;20.70;99.90
20246;DHT22;10281;54.406;18.556;2023-09-12T08:33:28;20.70;99.90
20246;DHT22;10281;54.406;18.556;2023-09-12T08:35:55;20.80;99.90
20246;DHT22;10281;54.406;18.556;2023-09-12T08:38:21;20.80;99.90
20246;DHT22;10281;54.406;18.556;2023-09-12T08:40:49;21.00;99.90
20246;DHT22;10281;54.406;18.556;2023-09-12T08:43:16;21.10;99.90
20246;DHT22;10281;54.406;18.556;2023-09-12T08:45:43;21.10;99.90
20246;DHT22;10281;54.406;18.556;2023-09-12T08:48:11;21.10;99.90
20246;DHT22;10281;54.406;18.556;2023-09-12T08:50:38;21.10;99.90
20246;DHT22;10281;54.406;18.556;2023-09-12T08:53:06;21.10;99.90
20246;DHT22;10281;54.406;18.556;2023-09-12T08:55:33;21.10;99.90
20246;DHT22;10281;54.406;18.556;2023-09-12T08:58:04;21.10;99.90
20246;DHT22;10281;54.406;18.556;2023-09-12T09:00:31;21.10;99.90
20246;DHT22;10281;54.406;18.556;2023-09-12T09:02:59;21.20;99.90
20246;DHT22;10281;54.406;18.556;2023-09-12T09:05:27;21.30;99.90
20246;DHT22;10281;54.406;18.556;2023-09-12T09:07:55;21.30;99.90
20246;DHT22;10281;54.406;18.556;2023-09-12T09:10:22;21.40;99.90
20246;DHT22;10281;54.406;18.556;2023-09-12T09:12:49;21.40;99.90
20246;DHT22;10281;54.406;18.556;2023-09-12T09:15:22;21.40;99.90
20246;DHT22;10281;54.406;18.556;2023-09-12T09:17:50;21.50;99.90
20246;DHT22;10281;54.406;18.556;2023-09-12T09:20:25;21.40;99.90
20246;DHT22;10281;54.406;18.556;2023-09-12T09:22:59;21.50;99.90
20246;DHT22;10281;54.406;18.556;2023-09-12T09:25:27;21.50;99.90
20246;DHT22;10281;54.406;18.556;2023-09-12T09:27:54;21.50;99.90
20246;DHT22;10281;54.406;18.556;2023-09-12T09:33:02;21.50;99.90
20246;DHT22;10281;54.406;18.556;2023-09-12T09:35:29;21.50;99.90
20246;DHT22;10281;54.406;18.556;2023-09-12T09:37:56;21.50;99.90
20246;DHT22;10281;54.406;18.556;2023-09-12T09:40:23;21.50;99.90
20246;DHT22;10281;54.406;18.556;2023-09-12T09:42:56;21.50;99.90
20246;DHT22;10281;54.406;18.556;2023-09-12T09:45:24;21.70;99.90
20246;DHT22;10281;54.406;18.556;2023-09-12T09:47:50;21.90;99.90
20246;DHT22;10281;54.406;18.556;2023-09-12T09:50:17;22.00;99.90
20246;DHT22;10281;54.406;18.556;2023-09-12T09:52:44;22.10;99.90
20246;DHT22;10281;54.406;18.556;2023-09-12T09:55:13;22.10;99.90
20246;DHT22;10281;54.406;18.556;2023-09-12T09:57:41;22.00;99.90
20246;DHT22;10281;54.406;18.556;2023-09-12T10:00:08;22.00;99.90
20246;DHT22;10281;54.406;18.556;2023-09-12T10:02:37;22.10;99.90
20246;DHT22;10281;54.406;18.556;2023-09-12T10:05:05;22.20;99.90
20246;DHT22;10281;54.406;18.556;2023-09-12T10:07:37;22.20;99.90
20246;DHT22;10281;54.406;18.556;2023-09-12T10:10:05;22.10;99.90
20246;DHT22;10281;54.406;18.556;2023-09-12T10:12:35;22.30;99.90
20246;DHT22;10281;54.406;18.556;2023-09-12T10:15:04;22.30;99.90
20246;DHT22;10281;54.406;18.556;2023-09-12T10:17:35;22.20;99.90
20246;DHT22;10281;54.406;18.556;2023-09-12T10:20:03;22.30;99.90
20246;DHT22;10281;54.406;18.556;2023-09-12T10:22:39;22.40;99.90
20246;DHT22;10281;54.406;18.556;2023-09-12T10:25:07;22.30;99.90
20246;DHT22;10281;54.406;18.556;2023-09-12T10:27:35;22.30;99.90
20246;DHT22;10281;54.406;18.556;2023-09-12T10:30:03;22.30;99.90
20246;DHT22;10281;54.406;18.556;2023-09-12T10:32:32;22.60;99.90
20246;DHT22;10281;54.406;18.556;2023-09-12T10:35:00;22.60;99.90
20246;DHT22;10281;54.406;18.556;2023-09-12T10:37:29;22.40;99.90
20246;DHT22;10281;54.406;18.556;2023-09-12T10:39:59;22.40;99.90
20246;DHT22;10281;54.406;18.556;2023-09-12T10:42:27;22.60;99.90
20246;DHT22;10281;54.406;18.556;2023-09-12T10:44:55;22.60;99.90
20246;DHT22;10281;54.406;18.556;2023-09-12T10:47:23;22.50;99.90
20246;DHT22;10281;54.406;18.556;2023-09-12T10:49:51;22.70;99.90
20246;DHT22;10281;54.406;18.556;2023-09-12T10:52:26;22.60;99.90
20246;DHT22;10281;54.406;18.556;2023-09-12T10:54:53;22.60;99.90
20246;DHT22;10281;54.406;18.556;2023-09-12T10:57:20;22.50;99.90
20246;DHT22;10281;54.406;18.556;2023-09-12T11:02:31;22.50;99.90
20246;DHT22;10281;54.406;18.556;2023-09-12T11:05:00;22.40;99.90
20246;DHT22;10281;54.406;18.556;2023-09-12T11:07:31;22.50;99.90
20246;DHT22;10281;54.406;18.556;2023-09-12T11:10:21;22.80;99.90
20246;DHT22;10281;54.406;18.556;2023-09-12T11:12:50;22.70;99.90
20246;DHT22;10281;54.406;18.556;2023-09-12T11:15:19;22.70;99.90
20246;DHT22;10281;54.406;18.556;2023-09-12T11:17:48;23.00;99.90
20246;DHT22;10281;54.406;18.556;2023-09-12T11:20:16;22.90;99.90
20246;DHT22;10281;54.406;18.556;2023-09-12T11:22:45;22.80;99.90
20246;DHT22;10281;54.406;18.556;2023-09-12T11:25:20;22.70;99.90
20246;DHT22;10281;54.406;18.556;2023-09-12T11:28:05;22.80;99.90
20246;DHT22;10281;54.406;18.556;2023-09-12T11:30:32;22.80;99.90
20246;DHT22;10281;54.406;18.556;2023-09-12T11:33:03;22.80;99.90
20246;DHT22;10281;54.406;18.556;2023-09-12T11:35:35;22.80;99.90
20246;DHT22;10281;54.406;18.556;2023-09-12T11:38:01;22.80;99.90
20246;DHT22;10281;54.406;18.556;2023-09-12T11:40:48;22.90;99.90
20246;DHT22;10281;54.406;18.556;2023-09-12T11:43:23;23.20;99.90
20246;DHT22;10281;54.406;18.556;2023-09-12T11:45:50;23.50;99.90
20246;DHT22;10281;54.406;18.556;2023-09-12T11:48:19;23.50;99.90
20246;DHT22;10281;54.406;18.556;2023-09-12T11:50:51;23.60;99.90
20246;DHT22;10281;54.406;18.556;2023-09-12T11:53:21;23.40;99.90
20246;DHT22;10281;54.406;18.556;2023-09-12T11:55:50;23.50;99.90
20246;DHT22;10281;54.406;18.556;2023-09-12T11:58:18;23.60;99.90
20246;DHT22;10281;54.406;18.556;2023-09-12T12:00:47;23.70;99.90
20246;DHT22;10281;54.406;18.556;2023-09-12T12:03:16;23.80;99.90
20246;DHT22;10281;54.406;18.556;2023-09-12T12:05:43;23.60;99.90
20246;DHT22;10281;54.406;18.556;2023-09-12T12:08:11;23.50;99.90
20246;DHT22;10281;54.406;18.556;2023-09-12T12:10:38;23.40;99.90
20246;DHT22;10281;54.406;18.556;2023-09-12T12:13:06;23.30;99.90
20246;DHT22;10281;54.406;18.556;2023-09-12T12:15:34;23.30;99.90
20246;DHT22;10281;54.406;18.556;2023-09-12T12:18:00;23.20;99.90
20246;DHT22;10281;54.406;18.556;2023-09-12T12:20:28;23.10;99.90
20246;DHT22;10281;54.406;18.556;2023-09-12T12:22:56;23.20;99.90
20246;DHT22;10281;54.406;18.556;2023-09-12T12:25:22;23.10;99.90
20246;DHT22;10281;54.406;18.556;2023-09-12T12:27:50;23.30;99.90
20246;DHT22;10281;54.406;18.556;2023-09-12T12:30:18;23.30;99.90
20246;DHT22;10281;54.406;18.556;2023-09-12T12:32:47;23.10;99.90
20246;DHT22;10281;54.406;18.556;2023-09-12T12:35:18;23.40;99.90
20246;DHT22;10281;54.406;18.556;2023-09-12T12:37:48;23.50;99.90
20246;DHT22;10281;54.406;18.556;2023-09-12T12:40:16;23.90;99.90
20246;DHT22;10281;54.406;18.556;2023-09-12T12:42:44;23.70;99.90
20246;DHT22;10281;54.406;18.556;2023-09-12T12:45:14;23.50;99.90
20246;DHT22;10281;54.406;18.556;2023-09-12T12:47:42;23.40;99.90
20246;DHT22;10281;54.406;18.556;2023-09-12T12:50:12;23.30;99.90
20246;DHT22;10281;54.406;18.556;2023-09-12T12:52:39;23.40;99.90
20246;DHT22;10281;54.406;18.556;2023-09-12T12:55:09;23.50;99.90
20246;DHT22;10281;54.406;18.556;2023-09-12T12:57:37;23.40;99.90
20246;DHT22;10281;54.406;18.556;2023-09-12T13:00:16;23.20;99.90
20246;DHT22;10281;54.406;18.556;2023-09-12T13:02:44;23.20;99.90
20246;DHT22;10281;54.406;18.556;2023-09-12T13:05:28;23.50;99.90
20246;DHT22;10281;54.406;18.556;2023-09-12T13:07:55;23.30;99.90
20246;DHT22;10281;54.406;18.556;2023-09-12T13:10:22;23.20;99.90
20246;DHT22;10281;54.406;18.556;2023-09-12T13:12:50;23.30;99.90
20246;DHT22;10281;54.406;18.556;2023-09-12T13:15:17;23.20;99.90
20246;DHT22;10281;54.406;18.556;2023-09-12T13:17:45;23.10;99.90
20246;DHT22;10281;54.406;18.556;2023-09-12T13:20:11;23.10;99.90
20246;DHT22;10281;54.406;18.556;2023-09-12T13:22:38;23.10;99.90
20246;DHT22;10281;54.406;18.556;2023-09-12T13:25:06;23.50;99.90
20246;DHT22;10281;54.406;18.556;2023-09-12T13:27:33;23.70;99.90
20246;DHT22;10281;54.406;18.556;2023-09-12T13:30:00;24.00;99.90
20246;DHT22;10281;54.406;18.556;2023-09-12T13:32:26;23.80;99.90
20246;DHT22;10281;54.406;18.556;2023-09-12T13:34:53;23.60;99.90
20246;DHT22;10281;54.406;18.556;2023-09-12T13:37:20;23.50;99.90
20246;DHT22;10281;54.406;18.556;2023-09-12T13:39:47;23.50;99.90
20246;DHT22;10281;54.406;18.556;2023-09-12T13:42:16;23.40;99.90
20246;DHT22;10281;54.406;18.556;2023-09-12T13:44:46;23.20;99.90
20246;DHT22;10281;54.406;18.556;2023-09-12T13:47:13;23.10;99.90
20246;DHT22;10281;54.406;18.556;2023-09-12T13:49:39;23.00;99.90
20246;DHT22;10281;54.406;18.556;2023-09-12T13:52:06;23.00;99.90
20246;DHT22;10281;54.406;18.556;2023-09-12T13:54:32;23.00;99.90
20246;DHT22;10281;54.406;18.556;2023-09-12T13:56:59;23.20;99.90
20246;DHT22;10281;54.406;18.556;2023-09-12T13:59:26;23.10;99.90
20246;DHT22;10281;54.406;18.556;2023-09-12T14:01:52;23.10;99.90
20246;DHT22;10281;54.406;18.556;2023-09-12T14:04:19;23.30;99.90
20246;DHT22;10281;54.406;18.556;2023-09-12T14:06:46;23.60;99.90
20246;DHT22;10281;54.406;18.556;2023-09-12T14:09:13;23.70;99.90
20246;DHT22;10281;54.406;18.556;2023-09-12T14:11:41;23.50;99.90
20246;DHT22;10281;54.406;18.556;2023-09-12T14:14:09;23.40;99.90
20246;DHT22;10281;54.406;18.556;2023-09-12T14:16:36;23.20;99.90
20246;DHT22;10281;54.406;18.556;2023-09-12T14:19:02;23.30;99.90
20246;DHT22;10281;54.406;18.556;2023-09-12T14:21:29;23.40;99.90
20246;DHT22;10281;54.406;18.556;2023-09-12T14:23:56;23.70;99.90
20246;DHT22;10281;54.406;18.556;2023-09-12T14:26:23;23.60;99.90
20246;DHT22;10281;54.406;18.556;2023-09-12T14:28:50;23.70;99.90
20246;DHT22;10281;54.406;18.556;2023-09-12T14:31:16;23.80;99.90
20246;DHT22;10281;54.406;18.556;2023-09-12T14:33:43;23.70;99.90
20246;DHT22;10281;54.406;18.556;2023-09-12T14:36:10;23.40;99.90
20246;DHT22;10281;54.406;18.556;2023-09-12T14:38:37;23.20;99.90
20246;DHT22;10281;54.406;18.556;2023-09-12T14:41:03;23.10;99.90
20246;DHT22;10281;54.406;18.556;2023-09-12T14:43:30;23.00;99.90
20246;DHT22;10281;54.406;18.556;2023-09-12T14:45:57;23.00;99.90
20246;DHT22;10281;54.406;18.556;2023-09-12T14:48:23;23.10;99.90
20246;DHT22;10281;54.406;18.556;2023-09-12T14:50:50;23.20;99.90
20246;DHT22;10281;54.406;18.556;2023-09-12T14:53:17;23.30;99.90
20246;DHT22;10281;54.406;18.556;2023-09-12T14:55:44;23.30;99.90
20246;DHT22;10281;54.406;18.556;2023-09-12T14:58:11;23.30;99.90
20246;DHT22;10281;54.406;18.556;2023-09-12T15:00:38;23.30;99.90
20246;DHT22;10281;54.406;18.556;2023-09-12T15:03:04;23.20;99.90
20246;DHT22;10281;54.406;18.556;2023-09-12T15:05:31;23.20;99.90
20246;DHT22;10281;54.406;18.556;2023-09-12T15:07:58;23.10;99.90
20246;DHT22;10281;54.406;18.556;2023-09-12T15:10:25;23.00;99.90
20246;DHT22;10281;54.406;18.556;2023-09-12T15:12:51;22.90;99.90
20246;DHT22;10281;54.406;18.556;2023-09-12T15:15:19;23.00;99.90
20246;DHT22;10281;54.406;18.556;2023-09-12T15:17:46;22.90;99.90
20246;DHT22;10281;54.406;18.556;2023-09-12T15:20:12;22.90;99.90
20246;DHT22;10281;54.406;18.556;2023-09-12T15:22:39;22.90;99.90
20246;DHT22;10281;54.406;18.556;2023-09-12T15:25:08;22.80;99.90
20246;DHT22;10281;54.406;18.556;2023-09-12T15:27:35;22.80;99.90